createdAt,value
2023-03-26T00:01:05.689Z,2.40
2023-03-26T00:03:36.032Z,2.10
2023-03-26T00:06:12.681Z,2.70
2023-03-26T00:08:41.790Z,2.50
2023-03-26T00:11:12.015Z,2.80
2023-03-26T00:13:38.981Z,2.80
2023-03-26T00:16:06.721Z,2.30
2023-03-26T00:18:35.089Z,2.60
2023-03-26T00:21:05.025Z,2.60
2023-03-26T00:23:35.269Z,2.50
2023-03-26T00:26:03.461Z,2.70
2023-03-26T00:28:30.904Z,2.90
2023-03-26T00:31:02.428Z,2.30
2023-03-26T00:33:29.676Z,2.90
2023-03-26T00:35:58.725Z,2.60
2023-03-26T00:38:26.962Z,2.70
2023-03-26T00:40:54.086Z,2.90
2023-03-26T00:43:22.883Z,2.10
2023-03-26T00:45:54.835Z,2.70
2023-03-26T00:48:31.529Z,2.60
2023-03-26T00:51:10.379Z,2.50
2023-03-26T00:53:39.009Z,2.20
2023-03-26T00:56:06.672Z,1.80
2023-03-26T00:58:34.052Z,1.50
2023-03-26T01:01:04.350Z,1.70
2023-03-26T01:03:34.015Z,1.40
2023-03-26T01:06:08.213Z,1.60
2023-03-26T01:08:40.680Z,1.50
2023-03-26T01:11:18.689Z,1.50
2023-03-26T01:13:49.651Z,1.80
2023-03-26T01:16:26.557Z,1.80
2023-03-26T01:18:54.665Z,1.70
2023-03-26T01:21:28.717Z,2.20
2023-03-26T01:24:15.637Z,2.10
2023-03-26T01:26:57.658Z,2.20
2023-03-26T01:29:52.960Z,2.40
2023-03-26T01:32:48.697Z,2.10
2023-03-26T01:35:27.758Z,2.10
2023-03-26T01:37:58.602Z,1.80
2023-03-26T01:40:42.796Z,1.80
2023-03-26T01:43:33.568Z,2.20
2023-03-26T01:46:03.755Z,1.60
2023-03-26T01:48:36.186Z,1.60
2023-03-26T01:51:03.927Z,1.60
2023-03-26T01:53:32.800Z,1.70
2023-03-26T01:56:29.214Z,1.80
2023-03-26T01:59:07.425Z,1.70
2023-03-26T02:02:00.126Z,1.40
2023-03-26T02:04:37.674Z,1.50
2023-03-26T02:07:34.641Z,2.10
2023-03-26T02:10:10.578Z,1.60
2023-03-26T02:12:37.771Z,1.70
2023-03-26T02:15:05.846Z,1.30
2023-03-26T02:17:33.269Z,1.50
2023-03-26T02:20:05.746Z,1.40
2023-03-26T02:22:32.406Z,1.30
2023-03-26T02:24:58.857Z,1.40
2023-03-26T02:27:25.622Z,1.30
2023-03-26T02:29:52.233Z,1.20
2023-03-26T02:32:20.194Z,1.40
2023-03-26T02:34:47.283Z,1.30
2023-03-26T02:37:13.932Z,1.30
2023-03-26T02:39:40.436Z,1.40
2023-03-26T02:42:06.870Z,1.20
2023-03-26T02:44:33.457Z,1.10
2023-03-26T02:47:02.688Z,1.00
2023-03-26T02:49:29.140Z,1.20
2023-03-26T02:51:56.321Z,1.20
2023-03-26T02:54:23.622Z,1.30
2023-03-26T02:56:50.204Z,1.20
2023-03-26T02:59:16.945Z,1.10
2023-03-26T03:01:43.632Z,1.20
2023-03-26T03:04:11.968Z,1.30
2023-03-26T03:06:40.519Z,1.40
2023-03-26T03:09:11.266Z,0.90
2023-03-26T03:11:41.311Z,1.00
2023-03-26T03:14:07.928Z,1.20
2023-03-26T03:16:34.396Z,1.20
2023-03-26T03:19:01.951Z,1.20
2023-03-26T03:21:29.383Z,1.60
2023-03-26T03:24:00.150Z,1.40
2023-03-26T03:26:27.808Z,1.10
2023-03-26T03:28:56.584Z,1.10
2023-03-26T03:31:24.965Z,1.10
2023-03-26T03:33:52.165Z,1.30
2023-03-26T03:36:23.276Z,1.30
2023-03-26T03:38:51.302Z,1.40
2023-03-26T03:41:18.778Z,1.20
2023-03-26T03:43:45.814Z,1.00
2023-03-26T03:46:12.465Z,1.00
2023-03-26T03:48:39.206Z,1.00
2023-03-26T03:51:06.331Z,1.00
2023-03-26T03:53:36.906Z,1.00
2023-03-26T03:56:04.601Z,1.20
2023-03-26T03:58:31.221Z,1.10
2023-03-26T04:01:00.927Z,1.20
2023-03-26T04:03:33.879Z,1.10
2023-03-26T04:06:01.461Z,1.10
2023-03-26T04:08:28.060Z,1.40
2023-03-26T04:10:54.782Z,1.20
2023-03-26T04:13:21.656Z,1.30
2023-03-26T04:15:48.389Z,1.10
2023-03-26T04:18:15.122Z,1.20
2023-03-26T04:20:46.768Z,1.20
2023-03-26T04:23:18.633Z,1.40
2023-03-26T04:25:49.085Z,1.40
2023-03-26T04:28:42.386Z,1.50
2023-03-26T04:31:15.757Z,1.80
2023-03-26T04:33:48.793Z,1.80
2023-03-26T04:36:16.863Z,1.60
2023-03-26T04:38:45.940Z,1.60
2023-03-26T04:41:14.098Z,1.90
2023-03-26T04:43:42.552Z,1.60
2023-03-26T04:46:10.705Z,1.60
2023-03-26T04:48:38.748Z,1.60
2023-03-26T04:51:10.225Z,1.70
2023-03-26T04:53:37.147Z,1.80
2023-03-26T04:56:23.617Z,1.60
2023-03-26T04:58:51.818Z,1.70
2023-03-26T05:01:18.616Z,1.60
2023-03-26T05:03:46.050Z,1.50
2023-03-26T05:06:13.743Z,1.60
2023-03-26T05:08:42.033Z,1.40
2023-03-26T05:11:11.667Z,1.40
2023-03-26T05:13:39.552Z,1.20
2023-03-26T05:16:06.650Z,1.40
2023-03-26T05:18:33.467Z,1.10
2023-03-26T05:21:00.207Z,1.20
2023-03-26T05:23:26.980Z,1.60
2023-03-26T05:25:53.741Z,1.60
2023-03-26T05:28:24.338Z,1.70
2023-03-26T05:30:54.449Z,1.70
2023-03-26T05:33:22.709Z,1.40
2023-03-26T05:36:03.234Z,1.80
2023-03-26T05:38:31.035Z,1.60
2023-03-26T05:40:59.650Z,1.80
2023-03-26T05:43:26.930Z,1.60
2023-03-26T05:45:54.117Z,1.70
2023-03-26T05:48:21.713Z,1.80
2023-03-26T05:50:50.111Z,2.00
2023-03-26T05:53:18.264Z,1.90
2023-03-26T05:55:46.627Z,2.50
2023-03-26T05:58:13.969Z,2.20
2023-03-26T06:00:40.602Z,2.30
2023-03-26T06:03:12.609Z,2.10
2023-03-26T06:05:40.460Z,2.80
2023-03-26T06:08:07.872Z,2.60
2023-03-26T06:10:37.718Z,2.50
2023-03-26T06:13:04.401Z,2.40
2023-03-26T06:15:31.275Z,3.00
2023-03-26T06:17:57.882Z,2.70
2023-03-26T06:20:24.624Z,2.50
2023-03-26T06:22:52.036Z,2.30
2023-03-26T06:25:19.151Z,2.50
2023-03-26T06:27:45.957Z,2.50
2023-03-26T06:30:12.905Z,2.40
2023-03-26T06:32:39.592Z,2.20
2023-03-26T06:35:06.781Z,2.50
2023-03-26T06:37:33.900Z,2.50
2023-03-26T06:40:00.554Z,2.20
2023-03-26T06:43:06.678Z,2.10
2023-03-26T06:45:14.587Z,2.40
2023-03-26T06:47:41.524Z,2.40
2023-03-26T06:50:08.766Z,2.50
2023-03-26T06:52:35.511Z,2.40
2023-03-26T06:55:02.145Z,2.20
2023-03-26T06:57:28.649Z,2.30
2023-03-26T06:59:55.555Z,2.40
2023-03-26T07:02:22.247Z,2.30
2023-03-26T07:04:48.968Z,2.10
2023-03-26T07:07:15.769Z,2.00
2023-03-26T07:09:42.340Z,1.60
2023-03-26T07:12:10.058Z,1.80
2023-03-26T07:14:38.750Z,1.80
2023-03-26T07:17:05.730Z,1.90
2023-03-26T07:19:33.020Z,1.90
2023-03-26T07:22:00.193Z,1.80
2023-03-26T07:24:27.245Z,2.00
2023-03-26T07:27:08.143Z,1.90
2023-03-26T07:29:52.460Z,1.80
2023-03-26T07:32:34.147Z,1.70
2023-03-26T07:35:32.054Z,1.70
2023-03-26T07:38:31.394Z,1.90
2023-03-26T07:41:20.983Z,2.00
2023-03-26T07:44:12.247Z,2.00
2023-03-26T07:46:39.267Z,1.90
2023-03-26T07:49:06.307Z,2.10
2023-03-26T07:51:33.816Z,1.70
2023-03-26T07:54:00.908Z,1.80
2023-03-26T07:56:36.608Z,1.70
2023-03-26T07:59:43.854Z,2.30
2023-03-26T08:02:32.274Z,1.80
2023-03-26T08:05:19.757Z,2.60
2023-03-26T08:07:53.078Z,1.80
2023-03-26T08:10:42.354Z,1.80
2023-03-26T08:13:20.038Z,1.90
2023-03-26T08:16:05.547Z,1.70
2023-03-26T08:18:46.623Z,1.60
2023-03-26T08:21:22.934Z,1.50
2023-03-26T08:24:20.224Z,1.60
2023-03-26T08:26:59.558Z,1.50
2023-03-26T08:29:51.697Z,2.00
2023-03-26T08:32:19.995Z,1.40
2023-03-26T08:34:46.910Z,1.50
2023-03-26T08:37:13.411Z,1.30
2023-03-26T08:39:42.237Z,1.70
2023-03-26T08:42:40.147Z,1.20
2023-03-26T08:45:33.726Z,1.60
2023-03-26T08:48:17.451Z,1.40
2023-03-26T08:51:13.548Z,1.30
2023-03-26T08:53:56.312Z,1.60
2023-03-26T08:56:39.477Z,1.50
2023-03-26T08:59:31.000Z,1.30
2023-03-26T09:02:11.240Z,1.40
2023-03-26T09:04:53.928Z,1.50
2023-03-26T09:07:46.993Z,1.40
2023-03-26T09:10:19.550Z,1.20
2023-03-26T09:12:49.678Z,1.40
2023-03-26T09:16:16.748Z,1.00
2023-03-26T09:19:29.058Z,1.50
2023-03-26T09:22:26.692Z,1.20
2023-03-26T09:25:13.449Z,1.10
2023-03-26T09:27:50.945Z,1.20
2023-03-26T09:30:28.212Z,1.30
2023-03-26T09:33:31.482Z,1.20
2023-03-26T09:36:46.283Z,1.50
2023-03-26T09:39:46.972Z,1.00
2023-03-26T09:42:42.395Z,1.30
2023-03-26T09:45:18.096Z,1.30
2023-03-26T09:48:05.986Z,1.70
2023-03-26T09:50:42.417Z,1.60
2023-03-26T09:53:30.720Z,1.50
2023-03-26T09:56:11.821Z,1.80
2023-03-26T09:58:38.293Z,1.80
2023-03-26T10:01:14.559Z,1.70
2023-03-26T10:04:17.664Z,1.40
2023-03-26T10:06:54.287Z,1.90
2023-03-26T10:09:37.558Z,2.00
2023-03-26T10:12:36.852Z,2.30
2023-03-26T10:15:32.556Z,2.10
2023-03-26T10:18:29.662Z,2.00
2023-03-26T10:21:12.261Z,2.10
2023-03-26T10:23:45.286Z,2.20
2023-03-26T10:26:30.799Z,2.70
2023-03-26T10:29:16.372Z,2.20
2023-03-26T10:31:44.748Z,2.20
2023-03-26T10:34:44.892Z,2.40
2023-03-26T10:37:20.653Z,2.40
2023-03-26T10:40:20.250Z,2.70
2023-03-26T10:43:17.131Z,2.60
2023-03-26T10:45:46.785Z,2.20
2023-03-26T10:48:25.637Z,2.50
2023-03-26T10:51:04.259Z,2.50
2023-03-26T10:53:47.749Z,2.40
2023-03-26T10:56:35.489Z,2.10
2023-03-26T10:59:07.232Z,2.00
2023-03-26T11:01:55.933Z,2.20
2023-03-26T11:04:40.778Z,2.30
2023-03-26T11:07:30.939Z,1.90
2023-03-26T11:10:08.320Z,2.70
2023-03-26T11:12:34.816Z,2.00
2023-03-26T11:15:22.764Z,2.30
2023-03-26T11:18:07.836Z,2.10
2023-03-26T11:20:55.441Z,2.50
2023-03-26T11:24:04.895Z,2.20
2023-03-26T11:26:55.827Z,2.20
2023-03-26T11:29:57.381Z,2.00
2023-03-26T11:32:31.842Z,2.00
2023-03-26T11:35:06.084Z,2.10
2023-03-26T11:37:42.258Z,2.00
2023-03-26T11:40:20.208Z,1.80
2023-03-26T11:42:49.868Z,2.00
2023-03-26T11:45:21.020Z,2.00
2023-03-26T11:48:04.080Z,2.00
2023-03-26T11:50:35.721Z,1.90
2023-03-26T11:53:12.811Z,1.70
2023-03-26T11:55:44.353Z,2.10
2023-03-26T11:58:39.332Z,1.60
2023-03-26T12:01:17.360Z,1.60
2023-03-26T12:04:03.607Z,1.70
2023-03-26T12:06:30.263Z,2.10
2023-03-26T12:08:57.391Z,1.60
2023-03-26T12:11:33.219Z,1.70
2023-03-26T12:14:04.019Z,1.60
2023-03-26T12:16:30.616Z,1.60
2023-03-26T12:19:19.521Z,1.70
2023-03-26T12:21:51.833Z,1.80
2023-03-26T12:24:35.991Z,1.50
2023-03-26T12:27:24.890Z,1.40
2023-03-26T12:29:52.564Z,1.60
2023-03-26T12:32:19.179Z,1.70
2023-03-26T12:34:46.096Z,1.50
2023-03-26T12:37:35.731Z,1.60
2023-03-26T12:40:26.010Z,1.50
2023-03-26T12:44:56.639Z,1.50
2023-03-26T12:45:43.676Z,1.50
2023-03-26T12:48:13.249Z,1.90
2023-03-26T12:50:45.633Z,1.40
2023-03-26T12:53:46.376Z,1.50
2023-03-26T12:56:40.597Z,1.60
2023-03-26T12:59:21.951Z,1.30
2023-03-26T13:02:29.441Z,1.40
2023-03-26T13:05:05.735Z,1.80
2023-03-26T13:07:53.716Z,1.40
2023-03-26T13:10:26.664Z,1.20
2023-03-26T13:13:31.058Z,1.40
2023-03-26T13:16:03.834Z,1.70
2023-03-26T13:18:36.505Z,1.40
2023-03-26T13:21:22.989Z,1.30
2023-03-26T13:24:05.970Z,1.40
2023-03-26T13:27:02.044Z,1.60
2023-03-26T13:29:46.869Z,1.30
2023-03-26T13:32:34.526Z,1.50
2023-03-26T13:35:16.471Z,1.70
2023-03-26T13:38:01.829Z,2.00
2023-03-26T13:40:53.233Z,1.70
2023-03-26T13:43:46.563Z,1.70
2023-03-26T13:46:43.064Z,1.60
2023-03-26T13:49:13.149Z,1.80
2023-03-26T13:52:03.034Z,1.60
2023-03-26T13:54:44.802Z,1.40
2023-03-26T13:57:21.606Z,1.50
2023-03-26T13:59:50.352Z,1.80
2023-03-26T14:02:42.690Z,3.50
2023-03-26T14:05:48.854Z,1.90
2023-03-26T14:08:25.805Z,1.80
2023-03-26T14:10:56.362Z,1.80
2023-03-26T14:13:36.091Z,1.70
2023-03-26T14:16:24.267Z,1.70
2023-03-26T14:19:24.768Z,2.10
2023-03-26T14:22:01.934Z,2.40
2023-03-26T14:24:48.604Z,2.50
2023-03-26T14:27:38.317Z,2.20
2023-03-26T14:30:42.412Z,2.10
2023-03-26T14:33:38.663Z,2.60
2023-03-26T14:36:27.172Z,3.00
2023-03-26T14:39:26.413Z,2.10
2023-03-26T14:42:08.687Z,2.00
2023-03-26T14:44:50.644Z,2.30
2023-03-26T14:47:19.038Z,2.60
2023-03-26T14:50:22.732Z,2.80
2023-03-26T14:52:51.962Z,3.00
2023-03-26T14:55:56.793Z,2.70
2023-03-26T14:58:51.134Z,1.90
2023-03-26T15:01:23.653Z,2.40
2023-03-26T15:04:47.167Z,2.40
2023-03-26T15:07:41.934Z,3.30
2023-03-26T15:10:18.650Z,2.90
2023-03-26T15:13:03.678Z,2.90
2023-03-26T15:15:53.951Z,2.00
2023-03-26T15:18:24.948Z,4.70
2023-03-26T15:21:10.616Z,2.70
2023-03-26T15:24:25.466Z,1.90
2023-03-26T15:27:22.603Z,1.80
2023-03-26T15:30:12.384Z,1.80
2023-03-26T15:33:07.658Z,1.70
2023-03-26T15:35:38.051Z,1.70
2023-03-26T15:38:38.614Z,1.70
2023-03-26T15:41:18.035Z,1.50
2023-03-26T15:47:01.812Z,1.60
2023-03-26T15:49:55.177Z,1.50
2023-03-26T15:52:31.302Z,1.30
2023-03-26T15:55:31.400Z,1.70
2023-03-26T15:58:25.591Z,1.70
2023-03-26T16:01:03.991Z,2.10
2023-03-26T16:03:48.068Z,1.80
2023-03-26T16:06:36.741Z,1.50
2023-03-26T16:09:17.053Z,1.60
2023-03-26T16:12:04.371Z,1.90
2023-03-26T16:14:46.879Z,1.90
2023-03-26T16:17:17.813Z,1.90
2023-03-26T16:19:44.268Z,2.00
2023-03-26T16:22:42.536Z,1.90
2023-03-26T16:25:33.613Z,1.80
2023-03-26T16:28:22.879Z,2.30
2023-03-26T16:31:37.792Z,2.40
2023-03-26T16:34:07.136Z,1.90
2023-03-26T16:36:35.531Z,2.20
2023-03-26T16:39:11.582Z,1.90
2023-03-26T16:41:50.146Z,1.90
2023-03-26T16:44:38.638Z,2.00
2023-03-26T16:47:21.997Z,6.60
2023-03-26T16:50:08.644Z,2.60
2023-03-26T16:52:54.918Z,4.20
2023-03-26T16:55:46.955Z,2.30
2023-03-26T16:58:13.578Z,2.50
2023-03-26T17:01:06.408Z,2.90
2023-03-26T17:03:45.040Z,1.80
2023-03-26T17:06:33.802Z,2.50
2023-03-26T17:09:03.904Z,2.40
2023-03-26T17:11:56.571Z,2.50
2023-03-26T17:14:49.006Z,2.40
2023-03-26T17:17:38.026Z,2.50
2023-03-26T17:20:32.788Z,2.30
2023-03-26T17:23:28.463Z,2.20
2023-03-26T17:26:07.174Z,2.40
2023-03-26T17:29:00.319Z,2.70
2023-03-26T17:31:58.548Z,3.10
2023-03-26T17:34:50.466Z,3.20
2023-03-26T17:37:16.979Z,2.90
2023-03-26T17:39:43.526Z,2.70
2023-03-26T17:42:16.148Z,2.20
2023-03-26T17:44:53.084Z,2.60
2023-03-26T17:47:26.770Z,2.60
2023-03-26T17:50:00.544Z,2.80
2023-03-26T17:52:48.080Z,2.50
2023-03-26T17:55:27.803Z,2.70
2023-03-26T17:57:57.844Z,2.40
2023-03-26T18:00:29.207Z,2.50
2023-03-26T18:03:01.369Z,2.40
2023-03-26T18:05:30.857Z,2.10
2023-03-26T18:08:02.041Z,2.50
2023-03-26T18:11:26.838Z,2.20
2023-03-26T18:14:08.785Z,2.20
2023-03-26T18:16:46.069Z,2.00
2023-03-26T18:19:22.849Z,2.20
2023-03-26T18:21:52.485Z,2.50
2023-03-26T18:24:41.256Z,3.20
2023-03-26T18:27:14.779Z,2.30
2023-03-26T18:29:56.372Z,2.50
2023-03-26T18:32:33.383Z,1.90
2023-03-26T18:35:13.596Z,2.30
2023-03-26T18:37:44.085Z,2.40
2023-03-26T18:40:20.996Z,1.70
2023-03-26T18:42:57.815Z,2.50
2023-03-26T18:45:37.448Z,3.30
2023-03-26T18:48:22.958Z,3.60
2023-03-26T18:51:06.712Z,2.40
2023-03-26T18:53:41.157Z,3.10
2023-03-26T18:56:38.919Z,3.10
2023-03-26T18:59:28.383Z,2.20
2023-03-26T19:01:57.837Z,3.20
2023-03-26T19:04:27.197Z,3.00
2023-03-26T19:06:56.182Z,2.90
2023-03-26T19:09:31.514Z,2.70
2023-03-26T19:12:16.216Z,1.90
2023-03-26T19:15:13.664Z,2.80
2023-03-26T19:17:44.794Z,2.40
2023-03-26T19:20:40.120Z,1.90
2023-03-26T19:23:08.845Z,1.90
2023-03-26T19:25:47.896Z,2.40
2023-03-26T19:28:19.800Z,2.10
2023-03-26T19:30:46.614Z,2.50
2023-03-26T19:33:20.400Z,1.90
2023-03-26T19:36:02.144Z,2.50
2023-03-26T19:38:37.700Z,2.20
2023-03-26T19:41:04.598Z,2.20
2023-03-26T19:43:31.161Z,2.60
2023-03-26T19:46:01.233Z,2.50
2023-03-26T19:48:46.589Z,2.00
2023-03-26T19:51:26.147Z,2.40
2023-03-26T19:53:55.979Z,2.30
2023-03-26T19:56:22.928Z,2.20
2023-03-26T19:58:52.603Z,2.80
2023-03-26T20:01:21.022Z,2.70
2023-03-26T20:03:50.507Z,4.60
2023-03-26T20:06:22.189Z,3.00
2023-03-26T20:08:55.428Z,2.30
2023-03-26T20:11:36.672Z,1.90
2023-03-26T20:14:12.643Z,2.30
2023-03-26T20:16:40.065Z,1.90
2023-03-26T20:19:08.769Z,1.50
2023-03-26T20:21:35.433Z,1.80
2023-03-26T20:24:02.085Z,1.50
2023-03-26T20:26:28.640Z,2.10
2023-03-26T20:28:55.106Z,1.30
2023-03-26T20:31:25.006Z,1.80
2023-03-26T20:33:53.443Z,1.70
2023-03-26T20:36:33.215Z,1.40
2023-03-26T20:39:05.543Z,1.60
2023-03-26T20:41:32.732Z,1.50
2023-03-26T20:43:59.209Z,1.80
2023-03-26T20:46:30.979Z,1.40
2023-03-26T20:48:59.650Z,1.50
2023-03-26T20:51:28.790Z,1.30
2023-03-26T20:53:56.084Z,1.80
2023-03-26T20:56:23.421Z,1.60
2023-03-26T20:59:03.725Z,1.50
2023-03-26T21:01:37.752Z,1.60
2023-03-26T21:04:04.427Z,1.50
2023-03-26T21:06:31.226Z,1.40
2023-03-26T21:08:58.306Z,1.60
2023-03-26T21:11:49.996Z,1.90
2023-03-26T21:14:24.460Z,1.40
2023-03-26T21:16:51.887Z,1.50
2023-03-26T21:19:19.031Z,1.50
2023-03-26T21:21:57.655Z,1.20
2023-03-26T21:24:33.184Z,1.10
2023-03-26T21:27:37.901Z,1.50
2023-03-26T21:30:10.500Z,1.40
2023-03-26T21:32:37.256Z,1.20
2023-03-26T21:35:04.624Z,1.60
2023-03-26T21:37:31.509Z,1.30
2023-03-26T21:39:59.864Z,1.50
2023-03-26T21:42:29.238Z,1.20
2023-03-26T21:44:56.043Z,1.20
2023-03-26T21:47:23.075Z,1.70
2023-03-26T21:49:50.675Z,1.40
2023-03-26T21:52:17.583Z,1.20
2023-03-26T21:54:44.456Z,1.40
2023-03-26T21:57:26.183Z,1.30
2023-03-26T22:00:11.427Z,1.20
2023-03-26T22:03:10.351Z,1.40
2023-03-26T22:05:50.795Z,1.40
2023-03-26T22:08:29.976Z,1.30
2023-03-26T22:10:57.090Z,1.00
2023-03-26T22:13:24.506Z,1.50
2023-03-26T22:15:51.030Z,1.30
2023-03-26T22:18:21.450Z,1.60
2023-03-26T22:20:49.003Z,1.40
2023-03-26T22:23:16.846Z,1.20
2023-03-26T22:25:46.260Z,0.90
2023-03-26T22:28:12.711Z,1.20
2023-03-26T22:30:39.618Z,1.60
2023-03-26T22:33:10.885Z,1.40
2023-03-26T22:35:44.545Z,1.50
2023-03-26T22:38:11.782Z,1.30
2023-03-26T22:40:38.929Z,1.40
2023-03-26T22:43:05.519Z,1.30
2023-03-26T22:45:32.561Z,1.00
2023-03-26T22:48:03.812Z,1.40
2023-03-26T22:50:31.947Z,1.40
2023-03-26T22:52:58.547Z,1.20
2023-03-26T22:55:29.017Z,1.70
2023-03-26T22:57:56.888Z,1.00
2023-03-26T23:00:23.655Z,0.90
2023-03-26T23:02:50.178Z,1.20
2023-03-26T23:05:17.640Z,1.00
2023-03-26T23:07:46.157Z,1.30
2023-03-26T23:10:13.790Z,0.90
2023-03-26T23:12:41.855Z,1.30
2023-03-26T23:15:09.743Z,1.40
2023-03-26T23:17:38.679Z,1.20
2023-03-26T23:20:13.561Z,1.20
2023-03-26T23:22:40.828Z,1.60
2023-03-26T23:25:07.776Z,1.30
2023-03-26T23:27:35.735Z,1.10
2023-03-26T23:30:04.197Z,1.80
2023-03-26T23:32:31.446Z,1.30
2023-03-26T23:34:57.978Z,1.70
2023-03-26T23:37:24.632Z,1.40
2023-03-26T23:39:51.994Z,1.50
2023-03-26T23:42:29.167Z,1.10
2023-03-26T23:44:57.323Z,1.20
2023-03-26T23:47:24.508Z,1.20
2023-03-26T23:49:51.193Z,1.20
2023-03-26T23:52:18.435Z,1.20
2023-03-26T23:54:45.738Z,1.60
2023-03-26T23:57:12.877Z,0.90
2023-03-26T23:59:41.513Z,1.10
